createdAt,value
2023-02-18T00:01:40.537Z,32.80
2023-02-18T00:04:09.365Z,35.30
2023-02-18T00:06:39.022Z,36.70
2023-02-18T00:09:09.344Z,35.70
2023-02-18T00:11:38.509Z,35.00
2023-02-18T00:14:11.327Z,34.80
2023-02-18T00:16:41.453Z,34.80
2023-02-18T00:19:19.986Z,35.90
2023-02-18T00:21:48.556Z,32.50
2023-02-18T00:24:17.092Z,34.50
2023-02-18T00:26:45.814Z,34.90
2023-02-18T00:29:14.802Z,34.20
2023-02-18T00:31:45.915Z,32.60
2023-02-18T00:34:14.643Z,34.30
2023-02-18T00:36:43.408Z,34.30
2023-02-18T00:39:13.030Z,36.10
2023-02-18T00:41:42.470Z,33.20
2023-02-18T00:44:11.841Z,36.30
2023-02-18T00:46:40.649Z,35.70
2023-02-18T00:49:09.642Z,34.70
2023-02-18T00:51:37.940Z,33.10
2023-02-18T00:54:06.398Z,38.30
2023-02-18T00:56:34.840Z,35.30
2023-02-18T00:59:03.136Z,37.00
2023-02-18T01:01:32.307Z,37.80
2023-02-18T01:04:00.229Z,36.10
2023-02-18T01:06:28.399Z,33.70
2023-02-18T01:08:56.720Z,33.90
2023-02-18T01:11:24.825Z,35.70
2023-02-18T01:13:53.025Z,37.60
2023-02-18T01:16:23.845Z,36.90
2023-02-18T01:18:53.636Z,36.30
2023-02-18T01:21:21.634Z,37.60
2023-02-18T01:23:49.622Z,37.30
2023-02-18T01:26:17.601Z,34.50
2023-02-18T01:28:45.728Z,35.40
2023-02-18T01:31:14.858Z,39.60
2023-02-18T01:33:46.072Z,36.20
2023-02-18T01:36:14.142Z,32.40
2023-02-18T01:38:42.222Z,37.80
2023-02-18T01:41:10.555Z,35.80
2023-02-18T01:43:39.213Z,38.60
2023-02-18T01:46:08.031Z,38.40
2023-02-18T01:48:42.925Z,36.20
2023-02-18T01:51:12.924Z,37.50
2023-02-18T01:53:59.600Z,39.00
2023-02-18T01:56:55.464Z,32.90
2023-02-18T01:59:30.778Z,35.70
2023-02-18T02:01:59.153Z,35.50
2023-02-18T02:04:27.211Z,33.80
2023-02-18T02:06:55.353Z,35.10
2023-02-18T02:09:25.320Z,36.00
2023-02-18T02:12:14.555Z,35.70
2023-02-18T02:14:55.164Z,34.40
2023-02-18T02:17:58.989Z,34.80
2023-02-18T02:20:54.962Z,30.90
2023-02-18T02:23:48.255Z,32.40
2023-02-18T02:26:21.972Z,33.90
2023-02-18T02:29:24.526Z,30.20
2023-02-18T02:32:28.395Z,31.60
2023-02-18T02:35:07.878Z,32.10
2023-02-18T02:37:53.465Z,29.50
2023-02-18T02:40:47.467Z,31.20
2023-02-18T02:43:50.020Z,30.50
2023-02-18T02:46:23.730Z,32.60
2023-02-18T02:51:33.815Z,29.90
2023-02-18T02:54:14.205Z,28.60
2023-02-18T02:56:42.272Z,28.80
2023-02-18T02:59:16.123Z,30.30
2023-02-18T03:01:49.743Z,29.10
2023-02-18T03:04:41.846Z,27.10
2023-02-18T03:07:42.311Z,28.80
2023-02-18T03:10:26.659Z,30.50
2023-02-18T03:13:15.633Z,29.40
2023-02-18T03:15:53.157Z,32.70
2023-02-18T03:18:38.491Z,29.30
2023-02-18T03:21:10.909Z,27.50
2023-02-18T03:23:50.112Z,33.30
2023-02-18T03:26:20.728Z,28.70
2023-02-18T03:28:49.523Z,29.50
2023-02-18T03:31:21.363Z,30.20
2023-02-18T03:33:55.693Z,30.70
2023-02-18T03:36:23.721Z,31.60
2023-02-18T03:39:01.837Z,32.10
2023-02-18T03:41:30.973Z,31.90
2023-02-18T03:44:01.819Z,31.60
2023-02-18T03:46:30.934Z,31.70
2023-02-18T03:48:59.532Z,31.10
2023-02-18T03:51:27.895Z,31.00
2023-02-18T03:53:55.812Z,31.20
2023-02-18T03:56:24.021Z,29.80
2023-02-18T03:58:52.020Z,30.80
2023-02-18T04:01:20.023Z,30.10
2023-02-18T04:06:00.244Z,30.50
2023-02-18T04:08:26.875Z,30.40
2023-02-18T04:10:53.584Z,29.80
2023-02-18T04:13:20.750Z,28.30
2023-02-18T04:15:50.857Z,30.50
2023-02-18T04:18:19.203Z,29.20
2023-02-18T04:20:45.822Z,26.80
2023-02-18T04:23:13.027Z,27.20
2023-02-18T04:25:40.371Z,28.20
2023-02-18T04:28:10.762Z,26.90
2023-02-18T04:30:38.717Z,25.00
2023-02-18T04:33:05.696Z,26.20
2023-02-18T04:35:32.389Z,25.10
2023-02-18T04:37:59.201Z,25.30
2023-02-18T04:40:29.245Z,26.30
2023-02-18T04:42:58.798Z,27.30
2023-02-18T04:45:26.006Z,24.30
2023-02-18T04:47:52.802Z,24.00
2023-02-18T04:50:20.989Z,23.60
2023-02-18T04:52:48.216Z,23.40
2023-02-18T04:55:15.084Z,23.30
2023-02-18T04:57:41.929Z,24.80
2023-02-18T05:00:09.301Z,23.90
2023-02-18T05:02:36.555Z,23.10
2023-02-18T05:05:07.179Z,25.20
2023-02-18T05:07:34.430Z,23.10
2023-02-18T05:10:01.072Z,22.60
2023-02-18T05:12:28.022Z,22.10
2023-02-18T05:14:55.138Z,21.30
2023-02-18T05:17:21.896Z,20.50
2023-02-18T05:19:48.947Z,21.90
2023-02-18T05:22:20.245Z,21.80
2023-02-18T05:24:47.265Z,19.90
2023-02-18T05:27:13.920Z,22.90
2023-02-18T05:29:41.629Z,21.50
2023-02-18T05:32:08.321Z,23.40
2023-02-18T05:34:36.759Z,22.70
2023-02-18T05:37:03.414Z,22.70
2023-02-18T05:39:30.234Z,21.60
2023-02-18T05:41:56.855Z,22.80
2023-02-18T05:44:29.755Z,22.90
2023-02-18T05:47:00.865Z,24.60
2023-02-18T05:49:28.469Z,22.80
2023-02-18T05:51:55.230Z,21.40
2023-02-18T05:54:21.962Z,22.30
2023-02-18T05:56:48.565Z,19.80
2023-02-18T05:59:15.760Z,19.10
2023-02-18T06:01:42.792Z,17.70
2023-02-18T06:04:09.925Z,18.00
2023-02-18T06:06:37.691Z,17.80
2023-02-18T06:09:05.562Z,17.00
2023-02-18T06:11:32.608Z,16.00
2023-02-18T06:13:59.205Z,14.70
2023-02-18T06:16:26.464Z,14.40
2023-02-18T06:18:54.108Z,14.10
2023-02-18T06:21:22.512Z,14.80
2023-02-18T06:23:49.173Z,14.60
2023-02-18T06:26:16.240Z,13.70
2023-02-18T06:28:42.942Z,13.30
2023-02-18T06:31:09.750Z,12.60
2023-02-18T06:33:36.389Z,13.10
2023-02-18T06:36:07.235Z,12.50
2023-02-18T06:38:34.619Z,12.00
2023-02-18T06:41:01.367Z,11.00
2023-02-18T06:43:27.950Z,11.80
2023-02-18T06:45:54.572Z,11.70
2023-02-18T06:48:22.261Z,11.90
2023-02-18T06:50:49.434Z,11.40
2023-02-18T06:53:18.953Z,10.50
2023-02-18T06:55:47.333Z,11.10
2023-02-18T06:58:20.228Z,10.30
2023-02-18T07:00:58.455Z,11.50
2023-02-18T07:03:26.571Z,9.60
2023-02-18T07:05:53.953Z,10.00
2023-02-18T07:08:21.221Z,11.90
2023-02-18T07:10:48.030Z,10.20
2023-02-18T07:13:15.070Z,8.50
2023-02-18T07:15:42.556Z,9.10
2023-02-18T07:18:11.292Z,8.30
2023-02-18T07:20:38.628Z,8.80
2023-02-18T07:23:06.288Z,8.50
2023-02-18T07:25:33.924Z,8.30
2023-02-18T07:28:01.636Z,7.30
2023-02-18T07:30:28.832Z,7.00
2023-02-18T07:32:56.251Z,6.30
2023-02-18T07:35:22.899Z,5.60
2023-02-18T07:37:49.648Z,4.30
2023-02-18T07:40:19.733Z,3.70
2023-02-18T07:42:47.202Z,4.10
2023-02-18T07:45:16.568Z,3.80
2023-02-18T07:47:44.926Z,3.20
2023-02-18T07:50:14.274Z,3.30
2023-02-18T07:52:42.186Z,3.60
2023-02-18T07:55:09.821Z,3.20
2023-02-18T07:57:56.603Z,2.60
2023-02-18T08:00:23.661Z,2.60
2023-02-18T08:02:50.392Z,2.50
2023-02-18T08:05:18.937Z,2.70
2023-02-18T08:07:46.022Z,2.50
2023-02-18T08:10:12.815Z,2.50
2023-02-18T08:12:40.927Z,2.00
2023-02-18T08:15:08.141Z,2.60
2023-02-18T08:17:39.567Z,2.80
2023-02-18T08:20:06.942Z,2.70
2023-02-18T08:22:33.689Z,2.40
2023-02-18T08:25:00.748Z,3.10
2023-02-18T08:27:27.588Z,3.30
2023-02-18T08:29:55.401Z,3.20
2023-02-18T08:32:22.202Z,2.70
2023-02-18T08:34:49.242Z,2.80
2023-02-18T08:37:15.994Z,2.60
2023-02-18T08:39:43.044Z,3.10
2023-02-18T08:42:10.731Z,2.60
2023-02-18T08:44:37.841Z,3.70
2023-02-18T08:47:04.483Z,3.00
2023-02-18T08:49:54.748Z,3.50
2023-02-18T08:52:21.744Z,3.90
2023-02-18T08:54:48.460Z,3.00
2023-02-18T08:57:15.432Z,3.10
2023-02-18T08:59:42.574Z,2.80
2023-02-18T09:02:13.881Z,2.70
2023-02-18T09:04:40.545Z,2.80
2023-02-18T09:07:07.911Z,3.00
2023-02-18T09:09:34.986Z,3.10
2023-02-18T09:12:06.902Z,3.50
2023-02-18T09:14:33.789Z,3.20
2023-02-18T09:17:00.453Z,2.70
2023-02-18T09:19:27.032Z,3.10
2023-02-18T09:21:54.054Z,3.00
2023-02-18T09:24:20.689Z,3.30
2023-02-18T09:26:47.819Z,2.80
2023-02-18T09:29:19.303Z,3.40
2023-02-18T09:31:46.794Z,3.60
2023-02-18T09:34:13.550Z,2.80
2023-02-18T09:36:40.332Z,3.10
2023-02-18T09:39:07.015Z,3.10
2023-02-18T09:41:43.913Z,2.80
2023-02-18T09:44:18.185Z,2.20
2023-02-18T09:47:13.082Z,3.30
2023-02-18T09:49:41.382Z,2.30
2023-02-18T09:52:25.201Z,2.90
2023-02-18T09:54:51.917Z,2.90
2023-02-18T09:57:37.857Z,2.90
2023-02-18T10:00:26.324Z,3.10
2023-02-18T10:03:15.374Z,2.60
2023-02-18T10:06:23.861Z,2.50
2023-02-18T10:08:51.466Z,3.50
2023-02-18T10:11:31.176Z,2.70
2023-02-18T10:14:00.413Z,2.30
2023-02-18T10:16:27.109Z,2.70
2023-02-18T10:18:56.816Z,2.90
2023-02-18T10:21:28.269Z,2.30
2023-02-18T10:24:03.206Z,2.30
2023-02-18T10:26:37.120Z,2.70
2023-02-18T10:29:05.343Z,3.40
2023-02-18T10:31:36.572Z,2.20
2023-02-18T10:34:19.745Z,2.40
2023-02-18T10:36:55.018Z,2.70
2023-02-18T10:39:34.335Z,2.50
2023-02-18T10:42:14.350Z,2.70
2023-02-18T10:45:09.877Z,2.30
2023-02-18T10:47:38.739Z,2.40
2023-02-18T10:50:09.452Z,2.40
2023-02-18T10:52:45.179Z,3.10
2023-02-18T10:55:15.259Z,2.70
2023-02-18T10:57:49.631Z,2.40
2023-02-18T11:00:24.620Z,2.20
2023-02-18T11:03:21.802Z,2.30
2023-02-18T11:05:56.829Z,2.30
2023-02-18T11:08:31.151Z,2.10
2023-02-18T11:10:58.190Z,2.30
2023-02-18T11:13:29.885Z,2.20
2023-02-18T11:16:01.856Z,2.60
2023-02-18T11:18:36.160Z,2.00
2023-02-18T11:21:05.378Z,2.60
2023-02-18T11:23:32.386Z,2.10
2023-02-18T11:26:06.401Z,2.90
2023-02-18T11:28:37.425Z,2.50
2023-02-18T11:31:04.737Z,2.30
2023-02-18T11:33:41.911Z,2.10
2023-02-18T11:36:18.326Z,1.90
2023-02-18T11:38:54.217Z,2.20
2023-02-18T11:41:30.147Z,3.20
2023-02-18T11:43:57.158Z,2.20
2023-02-18T11:46:26.318Z,2.00
2023-02-18T11:48:53.581Z,2.00
2023-02-18T11:51:27.621Z,2.50
2023-02-18T11:54:05.080Z,2.50
2023-02-18T11:56:35.233Z,2.80
2023-02-18T11:59:03.339Z,2.50
2023-02-18T12:01:49.025Z,2.10
2023-02-18T12:04:31.212Z,2.80
2023-02-18T12:07:04.632Z,2.80
2023-02-18T12:09:42.425Z,3.20
2023-02-18T12:12:17.090Z,2.70
2023-02-18T12:14:45.891Z,2.10
2023-02-18T12:17:38.324Z,2.30
2023-02-18T12:20:22.075Z,3.40
2023-02-18T12:23:37.428Z,3.50
2023-02-18T12:26:14.875Z,3.90
2023-02-18T12:28:48.917Z,2.40
2023-02-18T12:34:09.636Z,2.90
2023-02-18T12:36:51.560Z,2.80
2023-02-18T12:39:43.818Z,2.90
2023-02-18T12:42:26.134Z,2.30
2023-02-18T12:45:11.526Z,2.40
2023-02-18T12:48:12.676Z,2.90
2023-02-18T12:50:58.284Z,2.40
2023-02-18T12:53:54.148Z,2.70
2023-02-18T12:56:56.770Z,2.00
2023-02-18T12:59:54.963Z,1.90
2023-02-18T13:02:42.985Z,2.50
2023-02-18T13:05:32.662Z,2.20
2023-02-18T13:08:12.101Z,2.30
2023-02-18T13:10:52.173Z,2.30
2023-02-18T13:13:19.906Z,2.30
2023-02-18T13:15:59.085Z,2.90
2023-02-18T13:18:37.642Z,2.30
2023-02-18T13:21:06.056Z,2.00
2023-02-18T13:23:58.001Z,3.50
2023-02-18T13:26:24.841Z,2.20
2023-02-18T13:29:03.953Z,2.60
2023-02-18T13:32:10.197Z,2.00
2023-02-18T13:34:48.203Z,3.20
2023-02-18T13:37:14.788Z,2.60
2023-02-18T13:39:49.879Z,2.70
2023-02-18T13:42:16.454Z,3.00
2023-02-18T13:44:55.691Z,2.30
2023-02-18T13:47:41.891Z,2.20
2023-02-18T13:50:21.186Z,2.50
2023-02-18T13:52:49.084Z,2.40
2023-02-18T13:55:25.632Z,2.50
2023-02-18T13:57:54.413Z,2.20
2023-02-18T14:00:25.394Z,2.80
2023-02-18T14:02:59.985Z,1.80
2023-02-18T14:05:38.784Z,2.00
2023-02-18T14:08:15.714Z,2.40
2023-02-18T14:10:42.720Z,2.30
2023-02-18T14:13:25.154Z,2.10
2023-02-18T14:15:56.737Z,2.30
2023-02-18T14:18:25.887Z,2.50
2023-02-18T14:21:03.487Z,2.60
2023-02-18T14:23:36.969Z,2.70
2023-02-18T14:26:15.509Z,2.10
2023-02-18T14:28:44.522Z,2.40
2023-02-18T14:31:11.496Z,3.20
2023-02-18T14:34:00.309Z,8.70
2023-02-18T14:36:42.342Z,3.30
2023-02-18T14:39:37.452Z,2.90
2023-02-18T14:42:15.659Z,2.80
2023-02-18T14:45:21.097Z,3.20
2023-02-18T14:48:01.895Z,3.60
2023-02-18T14:50:33.380Z,2.40
2023-02-18T14:53:04.028Z,2.30
2023-02-18T14:55:35.360Z,2.70
2023-02-18T14:58:18.404Z,2.70
2023-02-18T15:00:45.375Z,2.50
2023-02-18T15:03:14.316Z,2.80
2023-02-18T15:05:41.617Z,2.30
2023-02-18T15:08:22.423Z,2.60
2023-02-18T15:11:04.414Z,2.50
2023-02-18T15:13:37.821Z,2.50
2023-02-18T15:16:09.521Z,2.70
2023-02-18T15:18:38.297Z,2.20
2023-02-18T15:21:07.763Z,2.50
2023-02-18T15:23:39.324Z,2.60
2023-02-18T15:26:06.974Z,2.30
2023-02-18T15:28:34.601Z,3.70
2023-02-18T15:31:02.822Z,2.80
2023-02-18T15:33:30.182Z,3.10
2023-02-18T15:36:01.673Z,2.80
2023-02-18T15:38:28.570Z,3.10
2023-02-18T15:40:55.277Z,2.60
2023-02-18T15:43:23.513Z,2.80
2023-02-18T15:45:51.910Z,2.50
2023-02-18T15:48:24.909Z,3.80
2023-02-18T15:50:56.923Z,3.00
2023-02-18T15:53:26.230Z,2.20
2023-02-18T15:55:53.935Z,2.40
2023-02-18T15:58:23.497Z,2.60
2023-02-18T16:00:55.480Z,3.00
2023-02-18T16:03:23.368Z,3.10
2023-02-18T16:05:51.410Z,2.00
2023-02-18T16:08:28.123Z,2.20
2023-02-18T16:10:56.902Z,3.20
2023-02-18T16:13:26.807Z,2.40
2023-02-18T16:15:53.973Z,2.50
2023-02-18T16:18:25.158Z,2.70
2023-02-18T16:23:46.039Z,2.90
2023-02-18T16:26:21.858Z,2.60
2023-02-18T16:28:53.177Z,3.80
2023-02-18T16:31:22.423Z,2.30
2023-02-18T16:33:51.620Z,2.90
2023-02-18T16:36:20.537Z,2.60
2023-02-18T16:38:49.286Z,3.40
2023-02-18T16:41:18.780Z,2.70
2023-02-18T16:43:47.277Z,3.20
2023-02-18T16:46:23.473Z,2.60
2023-02-18T16:48:55.880Z,2.30
2023-02-18T16:51:32.738Z,2.60
2023-02-18T16:54:10.341Z,3.00
2023-02-18T16:56:39.746Z,2.80
2023-02-18T16:59:07.845Z,2.80
2023-02-18T17:01:44.807Z,2.80
2023-02-18T17:04:17.560Z,2.60
2023-02-18T17:06:46.331Z,3.00
2023-02-18T17:09:20.710Z,2.80
2023-02-18T17:11:52.993Z,3.40
2023-02-18T17:14:21.844Z,3.30
2023-02-18T17:16:52.668Z,3.50
2023-02-18T17:19:21.474Z,3.70
2023-02-18T17:21:49.855Z,2.90
2023-02-18T17:24:18.566Z,2.90
2023-02-18T17:26:47.105Z,2.90
2023-02-18T17:29:15.932Z,3.40
2023-02-18T17:31:47.818Z,3.10
2023-02-18T17:34:20.121Z,4.10
2023-02-18T17:36:51.215Z,4.10
2023-02-18T17:39:19.742Z,4.40
2023-02-18T17:41:49.334Z,4.90
2023-02-18T17:44:21.100Z,4.70
2023-02-18T17:46:52.380Z,4.00
2023-02-18T17:49:21.801Z,4.00
2023-02-18T17:51:50.336Z,4.50
2023-02-18T17:54:19.997Z,4.00
2023-02-18T17:56:48.188Z,4.10
2023-02-18T17:59:16.273Z,3.60
2023-02-18T18:01:44.264Z,3.40
2023-02-18T18:04:17.481Z,3.60
2023-02-18T18:09:15.815Z,4.20
2023-02-18T18:11:45.372Z,3.70
2023-02-18T18:14:15.312Z,4.10
2023-02-18T18:16:43.369Z,4.10
2023-02-18T18:19:11.771Z,4.40
2023-02-18T18:21:40.338Z,4.90
2023-02-18T18:24:11.294Z,4.20
2023-02-18T18:26:41.155Z,5.40
2023-02-18T18:29:09.090Z,5.50
2023-02-18T18:31:38.393Z,3.90
2023-02-18T18:34:06.774Z,3.90
2023-02-18T18:36:34.829Z,4.30
2023-02-18T18:39:02.923Z,4.00
2023-02-18T18:41:31.018Z,4.10
2023-02-18T18:43:59.594Z,4.40
2023-02-18T18:46:30.014Z,3.70
2023-02-18T18:48:59.708Z,3.90
2023-02-18T18:51:29.436Z,3.40
2023-02-18T18:54:03.611Z,3.30
2023-02-18T18:56:31.871Z,4.00
2023-02-18T18:59:00.428Z,4.00
2023-02-18T19:01:29.393Z,3.30
2023-02-18T19:03:57.596Z,3.10
2023-02-18T19:06:25.970Z,3.80
2023-02-18T19:08:54.135Z,3.70
2023-02-18T19:11:24.441Z,3.40
2023-02-18T19:13:55.632Z,4.70
2023-02-18T19:16:44.367Z,4.40
2023-02-18T19:19:13.205Z,4.00
2023-02-18T19:21:43.074Z,4.70
2023-02-18T19:24:13.574Z,3.00
2023-02-18T19:26:41.849Z,3.90
2023-02-18T19:29:10.358Z,3.90
2023-02-18T19:31:40.726Z,3.60
2023-02-18T19:34:14.704Z,4.10
2023-02-18T19:36:46.088Z,3.90
2023-02-18T19:39:14.651Z,3.30
2023-02-18T19:41:43.956Z,3.50
2023-02-18T19:44:20.325Z,3.30
2023-02-18T19:46:48.529Z,3.00
2023-02-18T19:49:17.287Z,4.10
2023-02-18T19:51:45.649Z,3.80
2023-02-18T19:54:15.661Z,3.40
2023-02-18T19:56:44.931Z,3.50
2023-02-18T19:59:13.438Z,3.20
2023-02-18T20:01:42.902Z,4.70
2023-02-18T20:04:13.347Z,3.40
2023-02-18T20:06:41.985Z,4.20
2023-02-18T20:09:11.609Z,4.60
2023-02-18T20:11:42.639Z,4.00
2023-02-18T20:14:11.280Z,3.30
2023-02-18T20:16:39.371Z,3.60
2023-02-18T20:19:10.728Z,3.80
2023-02-18T20:21:39.229Z,4.20
2023-02-18T20:24:07.652Z,3.50
2023-02-18T20:26:35.841Z,2.80
2023-02-18T20:29:03.998Z,3.90
2023-02-18T20:31:33.531Z,3.70
2023-02-18T20:34:03.202Z,4.00
2023-02-18T20:36:33.544Z,3.80
2023-02-18T20:39:14.506Z,3.60
2023-02-18T20:41:45.054Z,3.30
2023-02-18T20:44:15.792Z,4.30
2023-02-18T20:46:44.131Z,3.30
2023-02-18T20:49:14.690Z,3.90
2023-02-18T20:51:43.009Z,3.50
2023-02-18T20:54:16.289Z,2.70
2023-02-18T20:59:14.396Z,4.20
2023-02-18T21:01:43.337Z,3.80
2023-02-18T21:04:15.408Z,4.40
2023-02-18T21:06:45.919Z,4.80
2023-02-18T21:09:18.968Z,4.20
2023-02-18T21:11:47.493Z,4.60
2023-02-18T21:14:18.985Z,4.60
2023-02-18T21:16:47.278Z,4.50
2023-02-18T21:19:17.311Z,4.30
2023-02-18T21:21:47.321Z,4.40
2023-02-18T21:24:16.969Z,4.40
2023-02-18T21:26:45.943Z,6.90
2023-02-18T21:29:18.083Z,3.50
2023-02-18T21:31:46.295Z,4.60
2023-02-18T21:34:15.141Z,4.20
2023-02-18T21:36:44.544Z,4.50
2023-02-18T21:39:13.160Z,4.80
2023-02-18T21:41:42.414Z,4.00
2023-02-18T21:44:10.421Z,4.30
2023-02-18T21:46:39.654Z,3.90
2023-02-18T21:49:09.990Z,3.90
2023-02-18T21:51:57.377Z,4.40
2023-02-18T21:54:27.300Z,3.70
2023-02-18T21:56:56.196Z,3.30
2023-02-18T21:59:26.941Z,4.00
2023-02-18T22:01:57.301Z,4.00
2023-02-18T22:04:25.991Z,3.90
2023-02-18T22:06:54.426Z,4.40
2023-02-18T22:09:24.519Z,4.40
2023-02-18T22:11:52.841Z,4.10
2023-02-18T22:14:21.770Z,3.50
2023-02-18T22:16:50.431Z,3.50
2023-02-18T22:19:18.506Z,3.20
2023-02-18T22:21:47.746Z,3.60
2023-02-18T22:24:17.377Z,3.40
2023-02-18T22:26:46.892Z,3.70
2023-02-18T22:29:15.744Z,4.40
2023-02-18T22:31:45.107Z,3.60
2023-02-18T22:34:13.936Z,3.60
2023-02-18T22:36:42.583Z,3.70
2023-02-18T22:39:11.602Z,3.70
2023-02-18T22:41:40.763Z,4.00
2023-02-18T22:44:12.461Z,4.10
2023-02-18T22:46:41.972Z,4.00
2023-02-18T22:49:11.154Z,3.90
2023-02-18T22:51:43.350Z,3.70
2023-02-18T22:54:14.554Z,3.00
2023-02-18T22:56:43.172Z,4.30
2023-02-18T22:59:12.003Z,4.00
2023-02-18T23:01:42.116Z,4.40
2023-02-18T23:04:14.958Z,4.20
2023-02-18T23:06:44.726Z,4.20
2023-02-18T23:09:16.117Z,3.80
2023-02-18T23:11:45.257Z,4.80
2023-02-18T23:14:21.980Z,4.80
2023-02-18T23:17:17.998Z,3.40
2023-02-18T23:19:54.136Z,3.40
2023-02-18T23:22:32.792Z,3.40
2023-02-18T23:25:01.541Z,4.30
2023-02-18T23:27:30.868Z,4.10
2023-02-18T23:29:59.066Z,4.50
2023-02-18T23:32:28.950Z,4.40
2023-02-18T23:34:57.227Z,3.90
2023-02-18T23:37:55.259Z,3.20
2023-02-18T23:40:23.665Z,3.60
2023-02-18T23:42:56.449Z,3.50
2023-02-18T23:45:24.895Z,3.60
2023-02-18T23:47:54.153Z,3.80
2023-02-18T23:50:22.177Z,4.10
2023-02-18T23:52:51.989Z,4.00
2023-02-18T23:55:20.539Z,3.90
2023-02-18T23:57:49.429Z,3.70
